createdAt,value
2023-05-12T00:01:21.671Z,13.27
2023-05-12T00:03:48.756Z,14.15
2023-05-12T00:06:15.832Z,14.13
2023-05-12T00:08:42.652Z,14.73
2023-05-12T00:11:09.502Z,15.88
2023-05-12T00:13:36.459Z,17.30
2023-05-12T00:16:03.815Z,18.45
2023-05-12T00:18:31.054Z,19.98
2023-05-12T00:20:58.179Z,19.60
2023-05-12T00:23:25.052Z,18.83
2023-05-12T00:25:51.985Z,22.58
2023-05-12T00:28:19.313Z,21.75
2023-05-12T00:30:46.176Z,25.10
2023-05-12T00:33:13.216Z,21.58
2023-05-12T00:35:40.080Z,22.98
2023-05-12T00:38:06.954Z,24.73
2023-05-12T00:40:33.973Z,26.05
2023-05-12T00:43:00.869Z,26.40
2023-05-12T00:45:29.791Z,27.05
2023-05-12T00:47:57.562Z,26.70
2023-05-12T00:50:24.617Z,28.35
2023-05-12T00:52:52.674Z,28.50
2023-05-12T00:55:19.779Z,27.95
2023-05-12T00:57:46.742Z,26.88
2023-05-12T01:00:14.119Z,28.77
2023-05-12T01:02:41.233Z,29.75
2023-05-12T01:05:10.015Z,29.35
2023-05-12T01:07:39.044Z,29.63
2023-05-12T01:10:20.207Z,31.85
2023-05-12T01:12:48.329Z,30.00
2023-05-12T01:15:15.457Z,29.38
2023-05-12T01:17:51.023Z,29.70
2023-05-12T01:20:20.805Z,30.63
2023-05-12T01:22:49.240Z,29.25
2023-05-12T01:25:17.328Z,31.77
2023-05-12T01:27:45.983Z,32.65
2023-05-12T01:30:18.532Z,30.02
2023-05-12T01:32:45.576Z,33.80
2023-05-12T01:35:12.523Z,32.25
2023-05-12T01:37:39.393Z,33.80
2023-05-12T01:40:06.672Z,34.47
2023-05-12T01:42:33.597Z,35.38
2023-05-12T01:45:00.509Z,34.60
2023-05-12T01:47:27.361Z,34.67
2023-05-12T01:49:54.410Z,33.90
2023-05-12T01:52:21.386Z,33.67
2023-05-12T01:54:48.218Z,36.08
2023-05-12T01:57:15.054Z,36.70
2023-05-12T01:59:41.829Z,35.88
2023-05-12T02:02:08.926Z,35.78
2023-05-12T02:04:35.870Z,34.58
2023-05-12T02:07:02.802Z,34.20
2023-05-12T02:09:29.683Z,36.38
2023-05-12T02:11:56.509Z,36.10
2023-05-12T02:14:23.297Z,33.85
2023-05-12T02:16:52.801Z,35.88
2023-05-12T02:19:20.790Z,34.60
2023-05-12T02:21:48.498Z,37.58
2023-05-12T02:24:16.572Z,36.92
2023-05-12T02:26:43.455Z,34.05
2023-05-12T02:29:11.140Z,35.88
2023-05-12T02:31:38.163Z,35.58
2023-05-12T02:34:06.669Z,35.22
2023-05-12T02:36:33.721Z,35.58
2023-05-12T02:39:00.722Z,36.10
2023-05-12T02:41:27.524Z,36.30
2023-05-12T02:43:54.418Z,35.97
2023-05-12T02:46:21.280Z,32.85
2023-05-12T02:48:48.110Z,36.13
2023-05-12T02:51:14.947Z,34.65
2023-05-12T02:53:41.843Z,35.47
2023-05-12T02:56:08.736Z,36.15
2023-05-12T02:58:35.662Z,35.70
2023-05-12T03:01:09.775Z,35.38
2023-05-12T03:03:37.657Z,35.15
2023-05-12T03:06:05.275Z,37.05
2023-05-12T03:08:32.214Z,37.33
2023-05-12T03:10:59.065Z,37.33
2023-05-12T03:13:25.875Z,37.78
2023-05-12T03:15:52.680Z,36.83
2023-05-12T03:18:19.750Z,35.85
2023-05-12T03:20:46.994Z,37.92
2023-05-12T03:23:13.897Z,38.33
2023-05-12T03:25:40.713Z,36.67
2023-05-12T03:28:07.644Z,37.65
2023-05-12T03:30:34.550Z,37.47
2023-05-12T03:33:01.749Z,36.05
2023-05-12T03:35:28.568Z,38.00
2023-05-12T03:37:55.368Z,39.25
2023-05-12T03:40:22.422Z,40.15
2023-05-12T03:42:49.365Z,42.63
2023-05-12T03:45:16.543Z,40.08
2023-05-12T03:47:43.518Z,40.83
2023-05-12T03:50:11.023Z,40.25
2023-05-12T03:52:38.648Z,40.25
2023-05-12T03:55:07.093Z,38.80
2023-05-12T03:57:36.403Z,35.95
2023-05-12T04:00:04.847Z,37.40
2023-05-12T04:02:31.850Z,40.78
2023-05-12T04:04:58.762Z,37.53
2023-05-12T04:07:25.649Z,36.53
2023-05-12T04:09:52.443Z,38.78
2023-05-12T04:12:19.249Z,36.80
2023-05-12T04:14:46.254Z,35.45
2023-05-12T04:17:13.135Z,38.08
2023-05-12T04:19:39.976Z,36.53
2023-05-12T04:22:06.781Z,33.97
2023-05-12T04:24:33.660Z,35.35
2023-05-12T04:27:00.597Z,34.13
2023-05-12T04:29:27.530Z,33.50
2023-05-12T04:31:55.618Z,35.00
2023-05-12T04:34:22.480Z,35.13
2023-05-12T04:36:49.359Z,34.85
2023-05-12T04:39:16.319Z,33.97
2023-05-12T04:41:43.079Z,33.15
2023-05-12T04:44:09.846Z,34.60
2023-05-12T04:46:36.764Z,34.58
2023-05-12T04:49:03.625Z,36.53
2023-05-12T04:51:30.473Z,34.42
2023-05-12T04:53:57.271Z,34.78
2023-05-12T04:56:24.152Z,32.05
2023-05-12T04:58:51.009Z,33.20
2023-05-12T05:01:18.279Z,33.70
2023-05-12T05:03:45.309Z,34.30
2023-05-12T05:06:12.154Z,35.55
2023-05-12T05:08:38.985Z,36.20
2023-05-12T05:11:05.960Z,37.17
2023-05-12T05:13:32.727Z,35.25
2023-05-12T05:15:59.643Z,36.33
2023-05-12T05:18:27.105Z,37.13
2023-05-12T05:20:58.440Z,36.22
2023-05-12T05:23:26.473Z,35.42
2023-05-12T05:25:53.501Z,33.35
2023-05-12T05:28:20.357Z,33.95
2023-05-12T05:30:47.232Z,39.10
2023-05-12T05:33:14.140Z,38.83
2023-05-12T05:35:42.464Z,38.00
2023-05-12T05:38:09.392Z,37.63
2023-05-12T05:40:49.335Z,37.50
2023-05-12T05:45:46.336Z,36.40
2023-05-12T05:48:13.570Z,38.03
2023-05-12T05:50:40.735Z,36.08
2023-05-12T05:53:07.569Z,36.65
2023-05-12T05:55:34.422Z,37.95
2023-05-12T05:58:01.271Z,36.83
2023-05-12T06:00:28.251Z,35.83
2023-05-12T06:02:55.214Z,38.63
2023-05-12T06:05:22.446Z,35.13
2023-05-12T06:07:49.464Z,34.97
2023-05-12T06:10:16.454Z,35.90
2023-05-12T06:12:43.497Z,35.88
2023-05-12T06:15:11.054Z,36.72
2023-05-12T06:17:38.670Z,35.60
2023-05-12T06:20:06.728Z,36.50
2023-05-12T06:22:34.840Z,37.00
2023-05-12T06:25:02.036Z,36.15
2023-05-12T06:27:28.859Z,35.72
2023-05-12T06:29:55.714Z,37.53
2023-05-12T06:32:22.681Z,36.97
2023-05-12T06:34:49.712Z,35.35
2023-05-12T06:37:16.657Z,36.35
2023-05-12T06:39:43.526Z,35.47
2023-05-12T06:42:11.598Z,36.55
2023-05-12T06:44:41.112Z,35.67
2023-05-12T06:47:08.981Z,36.72
2023-05-12T06:49:37.194Z,34.83
2023-05-12T06:52:05.281Z,36.05
2023-05-12T06:54:32.374Z,36.40
2023-05-12T06:56:59.362Z,34.92
2023-05-12T06:59:26.615Z,35.08
2023-05-12T07:01:53.516Z,34.85
2023-05-12T07:04:21.242Z,34.38
2023-05-12T07:06:48.287Z,35.60
2023-05-12T07:09:15.201Z,36.25
2023-05-12T07:11:42.076Z,33.67
2023-05-12T07:14:09.027Z,35.58
2023-05-12T07:16:36.069Z,34.53
2023-05-12T07:19:02.971Z,33.58
2023-05-12T07:21:30.891Z,32.75
2023-05-12T07:23:57.830Z,34.03
2023-05-12T07:26:24.772Z,32.92
2023-05-12T07:28:51.863Z,34.65
2023-05-12T07:31:18.772Z,33.85
2023-05-12T07:33:45.619Z,34.00
2023-05-12T07:36:12.435Z,33.63
2023-05-12T07:38:39.512Z,34.90
2023-05-12T07:41:06.981Z,32.78
2023-05-12T07:43:36.561Z,34.00
2023-05-12T07:46:03.491Z,32.42
2023-05-12T07:48:30.636Z,32.45
2023-05-12T07:50:57.578Z,33.20
2023-05-12T07:53:24.462Z,32.72
2023-05-12T07:55:51.766Z,30.95
2023-05-12T07:58:18.673Z,32.33
2023-05-12T08:00:45.578Z,32.75
2023-05-12T08:03:13.229Z,31.08
2023-05-12T08:05:40.172Z,29.73
2023-05-12T08:08:07.151Z,31.95
2023-05-12T08:10:34.127Z,30.92
2023-05-12T08:13:01.103Z,30.85
2023-05-12T08:15:27.904Z,31.30
2023-05-12T08:17:54.863Z,31.60
2023-05-12T08:20:21.702Z,32.25
2023-05-12T08:22:50.793Z,31.17
2023-05-12T08:25:17.752Z,29.80
2023-05-12T08:27:45.493Z,28.27
2023-05-12T08:30:12.644Z,29.35
2023-05-12T08:32:39.607Z,29.67
2023-05-12T08:35:06.870Z,29.42
2023-05-12T08:37:35.714Z,28.30
2023-05-12T08:40:04.173Z,26.95
2023-05-12T08:42:44.570Z,27.25
2023-05-12T08:45:12.131Z,25.42
2023-05-12T08:47:43.075Z,26.02
2023-05-12T08:50:11.691Z,24.58
2023-05-12T08:52:39.463Z,23.52
2023-05-12T08:55:07.646Z,24.15
2023-05-12T08:57:36.420Z,22.70
2023-05-12T09:00:05.941Z,23.20
2023-05-12T09:02:48.308Z,23.35
2023-05-12T09:05:19.058Z,22.48
2023-05-12T09:07:48.916Z,22.75
2023-05-12T09:10:29.937Z,24.20
2023-05-12T09:13:12.681Z,23.83
2023-05-12T09:15:43.188Z,23.50
2023-05-12T09:18:10.235Z,23.80
2023-05-12T09:20:37.099Z,22.50
2023-05-12T09:23:18.998Z,23.25
2023-05-12T09:25:47.138Z,21.90
2023-05-12T09:28:14.770Z,21.95
2023-05-12T09:30:44.726Z,19.63
2023-05-12T09:33:13.499Z,20.52
2023-05-12T09:35:45.368Z,21.27
2023-05-12T09:38:14.588Z,20.15
2023-05-12T09:40:43.279Z,20.33
2023-05-12T09:43:11.932Z,19.05
2023-05-12T09:45:40.057Z,18.75
2023-05-12T09:48:14.400Z,19.05
2023-05-12T09:50:52.032Z,18.00
2023-05-12T09:53:20.497Z,16.17
2023-05-12T09:55:51.493Z,16.60
2023-05-12T09:58:20.152Z,15.82
2023-05-12T10:03:18.535Z,15.95
2023-05-12T10:05:51.688Z,15.88
2023-05-12T10:08:24.252Z,16.48
2023-05-12T10:10:53.733Z,16.52
2023-05-12T10:13:21.404Z,16.70
2023-05-12T10:15:49.928Z,13.93
2023-05-12T10:18:17.581Z,13.73
2023-05-12T10:20:46.078Z,13.98
2023-05-12T10:23:13.547Z,14.15
2023-05-12T10:25:44.235Z,12.90
2023-05-12T10:28:11.911Z,12.38
2023-05-12T10:30:40.107Z,11.02
2023-05-12T10:33:10.187Z,9.77
2023-05-12T10:35:38.650Z,9.32
2023-05-12T10:38:11.652Z,9.45
2023-05-12T10:40:53.808Z,9.23
2023-05-12T10:43:25.712Z,9.30
2023-05-12T10:46:19.119Z,10.90
2023-05-12T10:49:04.318Z,10.32
2023-05-12T10:51:38.210Z,11.10
2023-05-12T10:54:07.729Z,11.43
2023-05-12T10:56:38.555Z,10.98
2023-05-12T10:59:20.037Z,12.30
2023-05-12T11:02:07.035Z,12.52
2023-05-12T11:04:48.675Z,12.18
2023-05-12T11:07:20.607Z,12.95
2023-05-12T11:09:57.824Z,12.38
2023-05-12T11:12:28.282Z,12.48
2023-05-12T11:14:55.384Z,12.55
2023-05-12T11:17:22.351Z,10.02
2023-05-12T11:19:50.688Z,9.68
2023-05-12T11:22:23.741Z,10.07
2023-05-12T11:24:52.679Z,10.63
2023-05-12T11:27:22.819Z,9.50
2023-05-12T11:30:01.914Z,10.68
2023-05-12T11:32:29.695Z,11.30
2023-05-12T11:35:08.154Z,11.75
2023-05-12T11:37:42.339Z,11.85
2023-05-12T11:40:21.016Z,10.68
2023-05-12T11:42:51.685Z,9.02
2023-05-12T11:45:29.886Z,7.18
2023-05-12T11:48:11.518Z,9.25
2023-05-12T11:50:43.790Z,8.82
2023-05-12T11:53:14.706Z,8.68
2023-05-12T11:55:52.897Z,8.70
2023-05-12T11:58:30.179Z,8.95
2023-05-12T12:01:08.596Z,6.15
2023-05-12T12:03:47.060Z,5.72
2023-05-12T12:06:14.517Z,5.32
2023-05-12T12:08:59.894Z,5.07
2023-05-12T12:11:28.401Z,5.40
2023-05-12T12:13:59.207Z,4.63
2023-05-12T12:16:28.075Z,5.00
2023-05-12T12:18:55.395Z,4.50
2023-05-12T12:21:23.938Z,3.88
2023-05-12T12:23:51.904Z,4.22
2023-05-12T12:26:20.822Z,3.60
2023-05-12T12:28:48.009Z,3.20
2023-05-12T12:31:15.993Z,2.92
2023-05-12T12:33:43.058Z,3.53
2023-05-12T12:36:10.145Z,3.53
2023-05-12T12:38:37.980Z,2.85
2023-05-12T12:41:06.301Z,4.32
2023-05-12T12:43:33.294Z,4.18
2023-05-12T12:46:00.232Z,5.10
2023-05-12T12:48:28.867Z,2.97
2023-05-12T12:50:56.256Z,2.95
2023-05-12T12:53:23.206Z,2.50
2023-05-12T12:55:50.031Z,3.35
2023-05-12T12:58:16.934Z,3.13
2023-05-12T13:00:43.941Z,3.90
2023-05-12T13:03:10.956Z,3.83
2023-05-12T13:05:37.845Z,2.70
2023-05-12T13:08:04.861Z,2.83
2023-05-12T13:10:31.878Z,2.75
2023-05-12T13:12:59.062Z,2.92
2023-05-12T13:15:26.094Z,2.75
2023-05-12T13:17:54.566Z,2.30
2023-05-12T13:20:40.597Z,2.35
2023-05-12T13:23:07.435Z,2.78
2023-05-12T13:25:34.385Z,1.98
2023-05-12T13:28:01.574Z,2.17
2023-05-12T13:30:28.469Z,2.47
2023-05-12T13:32:56.517Z,2.45
2023-05-12T13:35:23.731Z,2.22
2023-05-12T13:37:54.511Z,2.63
2023-05-12T13:40:21.303Z,2.35
2023-05-12T13:42:48.342Z,2.03
2023-05-12T13:45:18.909Z,2.38
2023-05-12T13:47:46.542Z,2.83
2023-05-12T13:50:13.390Z,2.25
2023-05-12T13:52:40.236Z,2.78
2023-05-12T13:55:07.705Z,1.85
2023-05-12T13:57:34.680Z,2.00
2023-05-12T14:00:02.066Z,2.08
2023-05-12T14:02:28.959Z,2.40
2023-05-12T14:04:56.546Z,2.15
2023-05-12T14:07:23.577Z,2.50
2023-05-12T14:09:50.406Z,2.03
2023-05-12T14:12:17.206Z,1.98
2023-05-12T14:14:49.573Z,1.80
2023-05-12T14:17:17.729Z,2.08
2023-05-12T14:19:45.507Z,2.47
2023-05-12T14:22:25.279Z,2.15
2023-05-12T14:24:53.896Z,2.30
2023-05-12T14:27:20.719Z,3.50
2023-05-12T14:29:47.524Z,3.30
2023-05-12T14:32:14.403Z,2.20
2023-05-12T14:34:41.218Z,3.10
2023-05-12T14:37:08.053Z,3.45
2023-05-12T14:39:34.896Z,2.85
2023-05-12T14:42:01.890Z,3.50
2023-05-12T14:44:28.780Z,2.55
2023-05-12T14:46:55.622Z,2.65
2023-05-12T14:49:22.639Z,2.45
2023-05-12T14:51:49.661Z,1.67
2023-05-12T14:54:25.205Z,2.13
2023-05-12T14:56:53.050Z,1.63
2023-05-12T14:59:20.139Z,1.60
2023-05-12T15:01:46.995Z,1.67
2023-05-12T15:04:13.838Z,1.50
2023-05-12T15:06:40.624Z,2.13
2023-05-12T15:09:07.516Z,1.88
2023-05-12T15:11:34.358Z,1.02
2023-05-12T15:14:01.394Z,1.45
2023-05-12T15:16:28.340Z,1.33
2023-05-12T15:18:55.513Z,1.35
2023-05-12T15:21:23.310Z,2.53
2023-05-12T15:23:50.866Z,3.13
2023-05-12T15:26:31.821Z,1.88
2023-05-12T15:29:00.232Z,2.25
2023-05-12T15:31:29.283Z,1.40
2023-05-12T15:33:57.285Z,1.50
2023-05-12T15:36:24.229Z,1.27
2023-05-12T15:38:51.087Z,1.33
2023-05-12T15:41:17.953Z,1.48
2023-05-12T15:43:44.853Z,1.58
2023-05-12T15:46:11.905Z,1.70
2023-05-12T15:48:39.761Z,1.98
2023-05-12T15:51:07.312Z,2.15
2023-05-12T15:53:34.524Z,4.60
2023-05-12T15:56:05.244Z,1.98
2023-05-12T15:58:32.277Z,1.55
2023-05-12T16:00:59.513Z,1.42
2023-05-12T16:03:26.609Z,1.75
2023-05-12T16:05:53.638Z,1.60
2023-05-12T16:08:21.952Z,1.58
2023-05-12T16:10:48.973Z,2.20
2023-05-12T16:13:15.949Z,1.77
2023-05-12T16:15:43.009Z,2.20
2023-05-12T16:18:11.372Z,1.77
2023-05-12T16:20:38.912Z,2.20
2023-05-12T16:23:05.817Z,1.60
2023-05-12T16:25:41.981Z,1.45
2023-05-12T16:28:08.834Z,1.63
2023-05-12T16:30:43.449Z,1.75
2023-05-12T16:33:10.460Z,1.98
2023-05-12T16:35:37.557Z,1.70
2023-05-12T16:38:04.587Z,2.55
2023-05-12T16:40:31.566Z,2.63
2023-05-12T16:42:58.330Z,2.10
2023-05-12T16:45:25.510Z,1.98
2023-05-12T16:47:52.504Z,2.28
2023-05-12T16:50:19.571Z,1.88
2023-05-12T16:52:46.414Z,2.00
2023-05-12T16:55:13.280Z,2.85
2023-05-12T16:57:42.645Z,2.30
2023-05-12T21:38:33.408Z,3.67
2023-05-12T21:41:01.822Z,3.67
2023-05-12T21:43:31.212Z,3.30
2023-05-12T21:46:05.034Z,3.42
2023-05-12T21:48:33.448Z,3.78
2023-05-12T21:51:01.375Z,3.80
2023-05-12T21:53:28.869Z,3.70
2023-05-12T21:55:55.801Z,3.90
2023-05-12T21:58:23.712Z,3.70
2023-05-12T22:00:53.166Z,3.47
2023-05-12T22:03:21.899Z,3.40
2023-05-12T22:05:49.066Z,3.85
2023-05-12T22:08:16.326Z,3.85
2023-05-12T22:10:43.320Z,3.53
2023-05-12T22:13:10.154Z,3.90
2023-05-12T22:15:37.213Z,3.78
2023-05-12T22:18:04.283Z,4.32
2023-05-12T22:20:31.288Z,4.50
2023-05-12T22:22:58.550Z,4.57
2023-05-12T22:25:25.470Z,4.32
2023-05-12T22:27:52.278Z,3.83
2023-05-12T22:30:19.245Z,4.10
2023-05-12T22:32:46.309Z,4.13
2023-05-12T22:35:13.288Z,3.92
2023-05-12T22:37:40.455Z,4.55
2023-05-12T22:40:07.919Z,3.75
2023-05-12T22:42:34.762Z,4.45
2023-05-12T22:45:04.702Z,4.15
2023-05-12T22:47:32.381Z,4.80
2023-05-12T22:49:59.620Z,4.82
2023-05-12T22:52:26.931Z,4.43
2023-05-12T22:54:56.829Z,4.78
2023-05-12T22:57:23.787Z,4.20
2023-05-12T22:59:51.096Z,4.47
2023-05-12T23:02:17.953Z,3.90
2023-05-12T23:04:44.826Z,4.22
2023-05-12T23:07:11.716Z,4.53
2023-05-12T23:09:38.550Z,4.93
2023-05-12T23:12:05.689Z,5.20
2023-05-12T23:14:32.565Z,5.63
2023-05-12T23:16:59.467Z,4.47
2023-05-12T23:19:26.393Z,4.95
2023-05-12T23:21:53.233Z,4.57
2023-05-12T23:24:20.090Z,4.97
2023-05-12T23:26:47.223Z,5.30
2023-05-12T23:29:14.048Z,5.53
2023-05-12T23:31:40.960Z,4.82
2023-05-12T23:34:07.882Z,4.40
2023-05-12T23:36:34.781Z,5.20
2023-05-12T23:39:01.577Z,5.10
2023-05-12T23:41:31.607Z,5.18
2023-05-12T23:43:58.670Z,5.20
2023-05-12T23:46:26.250Z,5.63
2023-05-12T23:48:55.315Z,5.90
2023-05-12T23:51:22.835Z,5.32
2023-05-12T23:53:49.727Z,5.97
2023-05-12T23:56:16.565Z,5.55
2023-05-12T23:58:43.450Z,5.25
